This is the latest recevied weather packets stored in our database for station/object KD4EG. If no packets are shown the sender has not sent any weather packets the latest 10 day(s).
| Time | Temp. | Humidity | Pressure | Rain* | Wind** | Luminosity | Snow |
|---|---|---|---|---|---|---|---|
| 1777347273 | 12.78° C | 76% | 1024.9 hPa | 0 mm | - | 0 W/m² | - |
| 1777346970 | 12.78° C | 76% | 1024.9 hPa | 0 mm | - | 0 W/m² | - |
| 1777346667 | 12.78° C | 77% | 1025.2 hPa | 0 mm | - | 0 W/m² | - |
| 1777346362 | 12.78° C | 76% | 1025.3 hPa | 0 mm | - | 0 W/m² | - |
| 1777346060 | 12.78° C | 76% | 1025.5 hPa | 0 mm | - | 0 W/m² | - |
| 1777345757 | 12.78° C | 76% | 1025.2 hPa | 0 mm | - | 0 W/m² | - |
| 1777345455 | 12.78° C | 76% | 1025.2 hPa | 0 mm | - | 0 W/m² | - |
| 1777345151 | 12.78° C | 75% | 1025.4 hPa | 0 mm | - | 0 W/m² | - |
| 1777344848 | 12.78° C | 75% | 1025.3 hPa | 0 mm | - | 0 W/m² | - |
| 1777344543 | 12.78° C | 74% | 1025.4 hPa | 0 mm | - | 0 W/m² | - |
| 1777343938 | 13.33° C | 74% | 1025 hPa | 0 mm | - | 0 W/m² | - |
| 1777343636 | 12.78° C | 75% | 1025 hPa | 0 mm | - | 0 W/m² | - |
| 1777343332 | 12.78° C | 74% | 1024.9 hPa | 0 mm | - | 0 W/m² | - |
| 1777342727 | 12.78° C | 75% | 1024.8 hPa | 0 mm | - | 0 W/m² | - |
| 1777342424 | 13.33° C | 75% | 1024.8 hPa | 0 mm | - | 0 W/m² | - |
| 1777342121 | 13.33° C | 75% | 1024.8 hPa | 0 mm | - | 0 W/m² | - |
| 1777341817 | 13.33° C | 75% | 1024.9 hPa | 0 mm | - | 0 W/m² | - |
| 1777341210 | 13.33° C | 74% | 1024.8 hPa | 0 mm | - | 0 W/m² | - |
| 1777340907 | 13.89° C | 73% | 1024.6 hPa | 0 mm | - | 0 W/m² | - |
| 1777339696 | 13.89° C | 72% | 1024.7 hPa | 0 mm | - | 0 W/m² | - |
| 1777339394 | 13.89° C | 72% | 1024.7 hPa | 0 mm | - | 0 W/m² | - |
| 1777339091 | 14.44° C | 70% | 1024.4 hPa | 0 mm | - | 0 W/m² | - |
| 1777338789 | 14.44° C | 69% | 1024.3 hPa | 0 mm | - | 0 W/m² | - |
| 1777336971 | 16.11° C | 61% | 1024.2 hPa | 0 mm | - | 0 W/m² | - |
| 1777336064 | 16.67° C | 57% | 1024.2 hPa | 0 mm | - | 0 W/m² | - |
* Rain latest hour (hover to see other rain measurements)
** Current wind speed in m/s (hover to see current wind gust speed)